MDLR

Details ICAO MDLR (LRM)
Name La Romana Casa De Campo Intl
Region Dominican Republic
Timezone America/Santo_Domingo (UTC-4.0)
Plans Departing 39
Arriving 79
Stats Elevation 238 ft / 73 m (AMSL)
Location 18.450713° -68.911834°
Runways 1
Magnetic Variation 11.908° W
Sunrise 2017-12-11 10:59:12 UTC / 2017-12-11 06:59:12 Local
Sunset 2017-12-11 22:01:41 UTC / 2017-12-11 18:01:41 Local
Advertisement - Login to hide

Runways

ID Width Length Bearing (true) Bearing (mag) Surface Threshold Offset Overrun Length
11 148 ft / 45 m 9,666 ft / 2,946 m 97.07° 108.98° Concrete 0 ft / 0 m 200 ft / 61 m
29 148 ft / 45 m 9,666 ft / 2,946 m 277.08° 288.99° Concrete 0 ft / 0 m 200 ft / 61 m

Map

Weather


0- 5 10 15 20 25 30 35+ Temperature / ° C

Clouds and Precipitation
Forecast for 2017-12-11 18:00 UTC. Updated a minute ago

Ground ~20,000 ft ~40,000 ft Winds

METAR

MDLR 111700Z 08010KT 9999 SCT020 30/24 Q1014

TAF

Not found

Frequencies

Tower 118.60 MHz LA ROMANA TWR
Departure 119.30 MHz LAS AMERICAS DEP
Approach 119.30 MHz LAS AMERICAS APP
Warning: Do not use this data for real-world aviation or navigation. No guarantee of current accuracy is given.